»·PEaware :: N129WS KBFL-KMHV

N129WS :: KBFL-KMHV

FLIGHT INFORMATION

Flight Status: Arrived
Operator: Privately registered:
United States
More flights under this callsign
Pilot: Michael M. (12217)
Aircraft: PIPER PA-28 CHEROKEE ARCHER
(PA28)
More flights by this aircraft type
Origin: KBFL Meadows
United States
Destination: KMHV Mojave
United States
More flights between these airports :: More routes between these airports
Route: +
File this flight plan on PilotEdge
Remarks: CAT6
Altitude:
(Current/Filed)
5,500ft
Speed:
(Current/Filed)
0kts
Departed: 19-Nov-16 06:50 PM
Arrived: 19-Nov-16 07:25 PM
Distance/Time
Traveled:
0nm/0:35
Distance/Time
To Go:
Arrived

Flight Plot

Page will automatically refresh every two minutes.


Map Options




Map Legend


Flown Route
Filed Route
Departure Airport
Arrival Airport
Navaid (VOR, NDB)
Fix

Horizontal Profiles

Position Reports

Time Latitude Longitude Heading Altitude Ground
Speed
19-Nov-16 18:27 35.435698 -119.052048 180 508ft 0kts
19-Nov-16 18:28 35.435698 -119.052048 180 508ft 0kts
19-Nov-16 18:29 35.435698 -119.052048 180 508ft 0kts
19-Nov-16 18:30 35.435698 -119.052048 180 508ft 0kts
19-Nov-16 18:31 35.435537 -119.052501 265 508ft 0kts
19-Nov-16 18:32 35.435373 -119.053466 229 508ft 2kts
19-Nov-16 18:33 35.435358 -119.053485 226 508ft 0kts
19-Nov-16 18:34 35.434428 -119.054548 183 508ft 11kts
19-Nov-16 18:35 35.433473 -119.054342 185 508ft 0kts
19-Nov-16 18:36 35.433473 -119.054342 185 508ft 0kts
19-Nov-16 18:37 35.433473 -119.054342 185 508ft 0kts
19-Nov-16 18:38 35.433473 -119.054342 185 508ft 0kts
19-Nov-16 18:39 35.433611 -119.053952 63 508ft 7kts
19-Nov-16 18:40 35.431849 -119.051583 136 508ft 5kts
19-Nov-16 18:41 35.429513 -119.048736 133 508ft 5kts
19-Nov-16 18:42 35.426460 -119.045049 135 508ft 8kts
19-Nov-16 18:42 35.425244 -119.045686 271 508ft 11kts
19-Nov-16 18:43 35.436608 -119.059882 320 1138ft 69kts
19-Nov-16 18:44 35.450642 -119.074390 322 2070ft 66kts
19-Nov-16 18:45 35.466020 -119.087940 327 2966ft 64kts
19-Nov-16 18:46 35.480021 -119.079984 80 3739ft 84kts
19-Nov-16 18:47 35.470982 -119.053091 122 4527ft 91kts
19-Nov-16 18:48 35.455657 -119.028367 135 5282ft 93kts
19-Nov-16 18:49 35.434856 -119.010776 165 5999ft 91kts
19-Nov-16 18:50 35.415495 -118.992607 147 6744ft 83kts
19-Nov-16 18:51 35.397954 -118.974289 149 7338ft 87kts
19-Nov-16 18:52 35.377263 -118.953254 147 7555ft 130kts
19-Nov-16 18:53 35.347865 -118.922980 146 7547ft 144kts
19-Nov-16 18:54 35.320423 -118.894841 146 7546ft 145kts
19-Nov-16 18:55 35.289367 -118.863100 146 7546ft 143kts
19-Nov-16 18:57 35.260956 -118.834118 146 7547ft 139kts
19-Nov-16 18:58 35.232638 -118.805013 145 7547ft 140kts
19-Nov-16 18:59 35.204649 -118.775191 144 7556ft 140kts
19-Nov-16 19:00 35.175633 -118.744186 144 7581ft 139kts
19-Nov-16 19:01 35.146593 -118.713049 143 7605ft 134kts
19-Nov-16 19:02 35.131405 -118.675361 97 7623ft 124kts
19-Nov-16 19:03 35.126369 -118.637571 97 7632ft 103kts
19-Nov-16 19:04 35.122039 -118.605933 97 7620ft 88kts
19-Nov-16 19:05 35.118765 -118.575114 90 7845ft 97kts
19-Nov-16 19:06 35.119477 -118.532667 84 7512ft 117kts
19-Nov-16 19:07 35.119729 -118.522107 85 7470ft 136kts
19-Nov-16 19:08 35.120738 -118.506409 74 7748ft 127kts
19-Nov-16 19:09 35.118687 -118.464769 98 6785ft 129kts
19-Nov-16 19:10 35.108773 -118.425379 106 6359ft 124kts
19-Nov-16 19:11 35.095803 -118.387029 114 6938ft 132kts
19-Nov-16 19:12 35.083402 -118.345096 120 6652ft 136kts
19-Nov-16 19:13 35.072542 -118.303432 99 6276ft 131kts
19-Nov-16 19:14 35.068273 -118.260470 98 5739ft 124kts
19-Nov-16 19:15 35.066226 -118.224397 95 4895ft 126kts
19-Nov-16 19:16 35.062969 -118.182892 74 3833ft 106kts
19-Nov-16 19:17 35.049113 -118.158690 153 3594ft 95kts
19-Nov-16 19:18 35.032730 -118.149642 149 3207ft 140kts
19-Nov-16 19:19 35.031499 -118.148855 334 2656ft 1kts
19-Nov-16 19:25 35.435699 -119.052035 179 508ft 0kts
19-Nov-16 19:26 35.435699 -119.052035 179 508ft 0kts
19-Nov-16 19:27 35.435699 -119.052035 179 508ft 0kts
19-Nov-16 19:28 35.435699 -119.052035 179 508ft 0kts
19-Nov-16 19:29 35.435699 -119.052035 179 508ft 0kts
19-Nov-16 19:30 35.435699 -119.052035 179 508ft 0kts

Navigation Log

Ident Type
Flight plan parsing failed, navigation log unavailable